KTPA/TPA METAR and TAF weather

Enter ICAO airport designator
Station Type Date Time Source
KTPA METAR 2024/07/23 16:53 UTC NOAA

KTPA 231653Z 22010KT 10SM FEW025 SCT037 BKN250 32/24 A3013 RMK AO2 SLP203 T03170244


Station Type Date Time Source
KTPA Decoded METAR 2024/07/23 16:53 UTC NOAA

TAMPA INTERNATIONAL AIRPORT , FL, United States (KTPA) 27-58N 082-32W 11M
Jul 23, 2024 - 12:53 PM EDT / 2024.07.23 1653 UTC
Wind: from the SW (220 degrees) at 12 MPH (10 KT):0
Visibility: 10 mile(s):0
Sky conditions: mostly cloudy
Temperature: 89.1 F (31.7 C)
Heat index: 100.2 F (37.9 C):1
Dew Point: 75.9 F (24.4 C)
Relative Humidity: 65%
Pressure (altimeter): 30.13 in. Hg (1020 hPa)
ob: KTPA 231653Z 22010KT 10SM FEW025 SCT037 BKN250 32/24 A3013 RMK AO2 SLP203 T03170244
cycle: 17

Station Type Date Time Source
KTPA TAF 2024/07/23 18:22 UTC NOAA